Weather observations for the past three days for
Hemet-Ryan Airport
Metric (Imperial)
Date Time (pdt) Wind (kph) Vis. (km) Weather Sky Cond. Temperature (ºC) Relative Humidity Wind Chill (°C) Heat Index (°C) Pressure Precipitation (cm)
Air Dwpt 6 hour altimeter (cm) sea level (mb) 1 hr 3 hr 6 hr
Max. Min.
03 21:15 S 9 16.09 Overcast OVC048 14 9 72% 76.12 0.0
03 20:55 S 17 16.09 Overcast BKN048 OVC050 14 9 72% 76.12 0.0
03 20:35 SW 26 16.09 Mostly Cloudy BKN050 14 9 72% 76.1 0.0
03 20:15 SW 17 G 28 16.09 Overcast OVC044 15 8 63% 76.1 0.0
03 19:55 SW 20 16.09 Overcast OVC046 15 8 63% 76.05 0.0
03 19:35 SW 22 16.09 Mostly Cloudy BKN042 15 8 63% 76.05 0.0
03 19:15 SW 28 G 39 16.09 Fair CLR 15 8 63% 76.02 0.0
03 18:55 SW 26 G 39 16.09 Fair CLR 16 8 59% 76 0.0
03 18:35 SW 26 16.09 Fair CLR 17 8 56% 75.97 0.0
03 18:15 SW 24 16.09 Fair CLR 18 8 52% 75.97 0.0
03 17:55 SW 28 G 35 16.09 Fair CLR 19 9 52% 75.95 0.0
03 17:35 SW 20 16.09 Fair CLR 20 9 49% 75.95 0.0
03 17:15 S 13 G 31 16.09 Partly Cloudy SCT042 SCT120 20 9 49% 75.9 0.0
03 16:55 S 17 16.09 Fair CLR 20 9 49% 75.92 0.0
03 16:35 SW 19 16.09 Fair CLR 20 9 49% 75.95 0.0
03 16:15 S 15 16.09 Fair CLR 21 9 46% 75.95 0.0
03 15:55 SW 17 G 28 16.09 Fair CLR 20 9 49% 75.97 0.0
03 15:35 SE 13 16.09 Fair CLR 21 10 50% 75.97 0.0
03 15:15 S 17 16.09 Partly Cloudy SCT037 20 10 53% 76 0.0
03 14:55 S 17 16.09 Overcast OVC035 20 10 53% 76.02 0.0
03 14:35 SW 19 16.09 Overcast OVC033 20 10 53% 76.05 0.0
03 14:15 S 22 16.09 Overcast OVC033 19 11 60% 76.05 0.0
03 13:55 S 17 16.09 Overcast OVC033 18 11 64% 76.05 0.0
03 13:35 SW 15 16.09 Overcast OVC031 18 11 64% 76.07 0.0
03 13:15 S 15 16.09 Overcast OVC028 18 11 64% 76.07 0.0
03 12:55 SW 17 16.09 Overcast SCT021 OVC028 17 11 68% 76.07 0.0
03 12:35 SW 19 16.09 Overcast SCT019 OVC026 17 11 68% 76.1 0.0
03 11:55 SW 15 16.09 Overcast OVC024 17 12 73% 76.12 0.0
03 11:35 SW 15 16.09 Overcast SCT017 OVC022 17 11 68% 76.12 0.0
03 11:15 SW 17 16.09 Overcast OVC016 16 12 77% 76.12 0.0
03 10:55 SW 11 16.09 Overcast SCT012 OVC019 16 12 77% 76.12 0.0
03 10:35 SW 11 16.09 Overcast BKN015 OVC019 15 12 82% 76.12 0.0
03 10:15 SW 11 16.09 Overcast OVC013 15 12 82% 76.12 0.0
03 09:55 SW 11 16.09 Overcast SCT008 OVC017 15 12 82% 76.1 0.0
03 09:35 SW 9 16.09 Overcast SCT008 OVC019 15 12 82% 76.1 0.0
03 09:15 SW 9 11.27 Fog/Mist SCT006 OVC015 14 13 94% 76.1 0.0
03 08:55 SW 11 5.63 Fog/Mist SCT006 OVC013 14 13 94% 76.1 0.0
03 08:35 SW 13 5.63 Fog/Mist SCT006 OVC013 14 13 94% 76.1 0.0
03 08:15 SW 17 16.09 Overcast SCT006 SCT010 OVC015 14 13 94% 76.07 0.0
03 07:55 W 13 16.09 Overcast OVC013 14 13 94% 76.07 0.0
03 07:35 W 9 11.27 Overcast OVC013 13 13 100% 76.07 0.0
03 07:15 SW 7 8.05 Fog/Mist OVC013 13 13 100% 76.05 0.0
03 06:55 W 11 4.83 Fog/Mist SCT006 OVC013 13 13 100% 76.05 0.0
03 06:35 SW 11 4.02 Fog/Mist SCT006 OVC011 13 13 100% 76.05 0.0
03 06:15 W 13 4.02 Fog/Mist BKN003 OVC011 13 13 100% 76.02 0.0
03 05:55 W 11 5.63 Fog/Mist OVC003 13 13 100% 76 0.0
03 05:35 W 7 4.02 Fog/Mist OVC003 13 13 100% 75.97 0.0
03 05:15 W 9 3.22 Fog/Mist OVC003 13 13 100% 76 0.0
03 04:55 W 9 3.22 Fog/Mist OVC003 13 13 100% 76 0.0
03 04:35 W 11 3.22 Fog/Mist OVC003 13 13 100% 76 0.0
03 04:15 W 7 4.02 Fog/Mist OVC003 13 13 100% 75.97 0.0
03 03:55 W 6 6.44 Fog/Mist OVC003 13 13 100% 75.97 0.0
03 03:35 W 9 4.83 Fog/Mist OVC003 13 13 100% 76 0.0
03 03:15 W 11 4.02 Fog/Mist OVC003 13 13 100% 76 0.0
03 02:55 SW 13 4.02 Fog/Mist OVC003 13 13 100% 76 0.0
03 02:35 W 15 2.82 Fog/Mist OVC003 13 13 100% 75.97 0.0
03 02:15 W 11 2.41 Fog/Mist OVC003 13 13 100% 76 0.0
03 01:55 SW 15 1.61 Fog/Mist OVC003 13 13 100% 76.02 0.0
03 01:35 SW 17 6.44 Fog/Mist OVC003 14 13 94% 76.02 0.0
03 01:15 SW 17 5.63 Fog/Mist OVC003 14 13 94% 76.05 0.0
03 00:55 SW 17 8.05 Fog/Mist BKN003 OVC120 14 13 94% 76.05 0.0
03 00:35 SW 20 11.27 Fog/Mist SCT003 BKN120 14 13 94% 76.05 0.0
03 00:15 SW 22 16.09 Partly Cloudy SCT110 14 13 94% 76.02 0.0
02 23:55 SW 20 16.09 Partly Cloudy SCT120 14 13 94% 76.02 0.0
02 23:35 SW 15 16.09 Partly Cloudy SCT120 15 13 88% 76.02 0.0
02 23:15 SW 17 16.09 Partly Cloudy SCT120 15 13 88% 76.02 0.0
02 22:55 SW 15 16.09 Partly Cloudy SCT120 15 13 88% 76 0.0
02 22:35 SW 11 16.09 Partly Cloudy SCT110 16 13 83% 76 0.0
02 22:15 SW 17 16.09 Fair CLR 16 13 83% 76 0.0
02 21:55 SW 19 16.09 Fair CLR 17 13 77% 75.97 0.0
02 21:35 SW 19 16.09 Partly Cloudy SCT110 17 13 77% 75.95 0.0
02 21:15 SW 20 16.09 Fair CLR 18 13 73% 75.92 0.0
02 20:55 SW 19 16.09 Fair CLR 19 13 68% 75.9 0.0
02 20:35 SW 17 16.09 Fair CLR 19 13 68% 75.9 0.0
02 20:15 SW 17 16.09 Fair CLR 20 13 64% 75.87 0.0
02 19:55 SW 15 16.09 Fair CLR 21 13 60% 75.87 0.0
02 19:35 W 11 16.09 Fair CLR 21 12 57% 75.84 0.0
02 19:15 SW 15 16.09 Partly Cloudy SCT120 22 13 57% 75.84 0.0
02 18:55 SW 19 16.09 Fair CLR 23 12 50% 75.82 0.0
02 18:35 SW 24 16.09 Fair CLR 24 13 50% 25 75.82 0.0
02 18:15 SW 22 16.09 Partly Cloudy SCT110 25 13 47% 26 75.82 0.0
02 17:55 S 20 16.09 Partly Cloudy SCT120 26 13 45% 26 75.82 0.0
02 17:35 SW 24 16.09 Partly Cloudy SCT120 26 12 42% 26 75.82 0.0
02 17:15 SW 28 16.09 Partly Cloudy SCT120 27 12 39% 27 75.79 0.0
02 16:55 SW 26 16.09 Partly Cloudy SCT120 27 11 37% 27 75.79 0.0
02 16:35 SW 30 16.09 Partly Cloudy SCT120 28 12 37% 27 75.79 0.0
02 16:15 SW 30 16.09 Partly Cloudy SCT110 29 12 35% 28 75.79 0.0
02 15:55 SW 20 16.09 Partly Cloudy SCT110 29 11 33% 28 75.79 0.0
02 15:35 S 22 G 33 16.09 Partly Cloudy SCT110 30 11 31% 29 75.82 0.0
02 15:15 S 22 16.09 Partly Cloudy SCT110 30 12 33% 29 75.84 0.0
02 14:55 S 20 16.09 Partly Cloudy SCT110 30 12 33% 29 75.84 0.0
02 14:35 SW 20 16.09 Partly Cloudy SCT100 SCT120 31 7 22% 29 75.87 0.0
02 14:15 SW 17 16.09 Fair CLR 31 7 22% 29 75.9 0.0
02 13:55 W 17 16.09 Fair CLR 30 9 27% 29 75.9 0.0
02 13:35 SW 20 16.09 Fair CLR 30 9 27% 29 75.92 0.0
02 13:15 SW 17 16.09 Fair CLR 29 9 29% 28 75.95 0.0
02 12:55 SW 17 16.09 Fair CLR 28 10 32% 27 75.97 0.0
02 12:35 SW 13 16.09 Fair CLR 27 11 37% 27 76 0.0
02 12:15 SW 11 16.09 Fair CLR 26 12 42% 26 76 0.0
02 11:55 SW 15 16.09 Partly Cloudy SCT110 26 12 42% 26 76.02 0.0
02 11:35 SW 11 16.09 Partly Cloudy SCT110 24 12 47% 25 76.05 0.0
02 11:15 SW 15 16.09 Partly Cloudy SCT110 23 12 50% 76.07 0.0
02 10:55 SW 13 16.09 Partly Cloudy SCT095 SCT120 23 13 53% 76.1 0.0
02 10:35 SW 6 16.09 Partly Cloudy SCT110 21 12 57% 76.1 0.0
02 10:15 Calm 16.09 Partly Cloudy SCT110 20 13 64% 76.1 0.0
02 09:55 Calm 16.09 Partly Cloudy SCT110 19 13 68% 76.12 0.0
02 09:35 Calm 16.09 Fair CLR 18 13 73% 76.12 0.0
02 09:15 S 6 11.27 Partly Cloudy SCT110 16 13 83% 76.15 0.0
02 08:55 SW 9 11.27 Partly Cloudy with Haze SCT008 SCT110 15 13 88% 76.17 0.0
02 08:35 Calm 8.05 Fog/Mist BKN006 BKN110 14 13 94% 76.15 0.0
02 08:15 Calm 6.44 Fog/Mist OVC002 13 13 100% 76.15 0.0
02 07:55 Calm 2.41 Fog/Mist OVC002 13 12 94% 76.15 0.0
02 07:35 SW 9 0.40 Fog OVC003 13 12 94% 76.17 0.0
02 07:15 W 7 0.40 Fog OVC003 13 12 94% 76.15 0.0
02 06:55 SW 13 0.24 Fog OVC003 12 12 100% 76.15 0.0
02 06:35 SW 13 0.40 Fog OVC003 12 12 100% 76.12 0.0
02 06:15 SW 15 0.40 Fog OVC003 12 11 94% 76.1 0.0
02 05:55 SW 11 0.24 Fog OVC003 10 10 100% 9 76.07 0.0
02 05:35 SW 11 3.22 Fog/Mist SCT003 SCT100 SCT120 9 9 100% 8 76.05 0.0
02 05:15 W 6 0.24 Fog OVC002 10 9 94% 76.05 0.0
02 04:55 Calm 0.24 Fog BKN002 OVC110 9 8 94% 76.05 0.0
02 04:35 Calm 8.05 Fog/Mist SCT110 10 9 94% 76.05 0.0
02 04:15 Calm 3.22 Fog/Mist CLR 10 10 100% 76.02 0.0
02 03:55 Calm 8.05 Fog/Mist CLR 11 10 94% 76.02 0.0
02 03:35 Calm 0.80 Fog BKN110 11 10 94% 76.02 0.0
02 03:15 Calm 11.27 Mostly Cloudy BKN100 BKN120 10 10 100% 76.02 0.0
02 02:55 Calm 11.27 Fair CLR 11 10 94% 76.02 0.0
02 02:35 Calm 8.05 Fog/Mist CLR 9 9 100% 76.02 0.0
02 02:15 Calm 16.09 Partly Cloudy SCT100 SCT120 12 10 88% 76.05 0.0
02 01:55 Calm 11.27 Fog/Mist CLR 11 9 88% 76.07 0.0
02 01:35 Calm 16.09 Partly Cloudy SCT120 13 11 88% 76.07 0.0
02 01:15 Calm 16.09 Partly Cloudy SCT090 SCT120 14 12 88% 76.1 0.0
02 00:55 SW 6 16.09 Fair CLR 13 12 94% 76.1 0.0
02 00:35 SW 9 16.09 Fair CLR 13 11 88% 76.1 0.0
02 00:15 SW 11 16.09 Fair CLR 13 11 88% 76.1 0.0
01 23:55 SW 13 16.09 Partly Cloudy SCT110 13 12 94% 76.1 0.0
01 23:35 SW 11 16.09 Partly Cloudy SCT110 14 12 88% 76.1 0.0
01 23:15 SW 11 16.09 Partly Cloudy SCT110 14 12 88% 76.1 0.0
01 22:55 SW 11 16.09 Partly Cloudy SCT110 14 12 88% 76.1 0.0
01 22:35 SW 13 16.09 Fair CLR 15 12 82% 76.1 0.0
01 22:15 S 9 16.09 Fair CLR 15 12 82% 76.1 0.0
01 21:55 SW 11 16.09 Fair CLR 16 12 77% 76.1 0.0
01 21:35 W 15 16.09 Fair CLR 16 12 77% 76.1 0.0
01 21:15 SW 11 16.09 Fair CLR 16 12 77% 76.07 0.0
01 20:55 W 17 16.09 Fair CLR 16 12 77% 76.07 0.0
01 20:35 SW 11 16.09 Fair CLR 17 12 73% 76.05 0.0
01 20:15 SW 15 16.09 Fair CLR 18 12 68% 76 0.0
01 19:55 SW 19 16.09 Partly Cloudy SCT120 19 13 68% 75.97 0.0
01 19:35 SW 19 16.09 Partly Cloudy SCT120 21 13 60% 75.95 0.0
01 19:15 SW 19 16.09 Partly Cloudy SCT120 22 13 57% 75.95 0.0
01 18:55 SW 15 16.09 Partly Cloudy SCT110 23 13 53% 75.92 0.0
01 18:35 SW 19 16.09 Partly Cloudy SCT110 24 13 50% 25 75.9 0.0
01 18:15 SW 17 16.09 Partly Cloudy SCT120 25 13 47% 26 75.9 0.0
01 17:55 SW 22 16.09 Partly Cloudy SCT110 26 13 45% 26 75.87 0.0
01 17:35 SW 20 16.09 Partly Cloudy SCT110 27 13 42% 27 75.87 0.0
01 17:15 W 13 16.09 Partly Cloudy SCT110 29 10 31% 28 75.87 0.0
01 16:55 NW 15 16.09 Mostly Cloudy SCT065 SCT080 BKN110 29 9 29% 28 75.87 0.0
01 16:35 NW 15 16.09 Mostly Cloudy SCT065 SCT080 BKN110 29 10 31% 28 75.84 0.0
01 16:15 W 17 16.09 Mostly Cloudy SCT065 SCT090 BKN110 30 11 31% 29 75.84 0.0
01 15:55 NW 15 16.09 Mostly Cloudy BKN110 29 10 31% 28 75.87 0.0
01 15:35 W 20 16.09 Mostly Cloudy SCT070 SCT100 BKN120 30 10 29% 29 75.87 0.0
01 15:15 NW 13 16.09 Mostly Cloudy SCT070 BKN110 30 9 27% 29 75.9 0.0
01 14:55 W 17 16.09 Mostly Cloudy BKN110 30 8 25% 28 75.92 0.0
01 14:35 W 17 16.09 Mostly Cloudy BKN100 29 9 29% 28 75.95 0.0
01 14:15 W 13 16.09 Mostly Cloudy BKN100 29 10 31% 28 75.95 0.0
01 13:55 W 15 16.09 Mostly Cloudy BKN100 29 10 31% 28 75.97 0.0
01 13:35 SW 13 16.09 Mostly Cloudy BKN100 BKN120 27 10 34% 27 75.97 0.0
01 13:15 SW 13 16.09 Mostly Cloudy BKN100 BKN120 26 11 39% 26 76 0.0
01 12:55 SW 9 16.09 Mostly Cloudy BKN100 BKN120 26 11 39% 26 76.02 0.0
01 12:35 SW 6 16.09 Mostly Cloudy BKN100 25 11 42% 26 76.02 0.0
01 12:15 SW 6 16.09 Partly Cloudy SCT100 SCT120 24 11 44% 25 76.05 0.0
01 11:55 SW 9 16.09 Mostly Cloudy BKN110 23 11 47% 76.07 0.0
01 11:35 SW 13 16.09 Mostly Cloudy BKN110 22 11 50% 76.1 0.0
01 10:55 W 6 16.09 Partly Cloudy SCT110 19 11 60% 76.12 0.0
01 10:35 SW 9 16.09 Partly Cloudy SCT110 19 12 64% 76.15 0.0
01 10:15 N 6 16.09 Partly Cloudy SCT100 SCT120 17 11 68% 76.15 0.0
01 09:55 S 6 16.09 Partly Cloudy SCT110 16 11 72% 76.15 0.0
01 09:35 S 9 16.09 Mostly Cloudy SCT008 BKN110 15 11 77% 76.17 0.0
01 09:15 S 6 16.09 Overcast OVC008 14 11 82% 76.17 0.0
01 08:55 Calm 11.27 Overcast OVC004 13 11 88% 76.17 0.0
01 08:35 N 6 11.27 Overcast OVC004 12 11 94% 76.17 0.0
01 08:15 Calm 8.05 Fog/Mist NULL 12 11 94% 76.17 0.0
01 07:55 N 6 4.83 Fog/Mist NULL 12 11 94% 76.17 0.0
01 07:35 NW 7 4.83 Fog/Mist NULL 12 11 94% 76.17 0.0
01 07:15 Calm 1.61 Fog/Mist NULL 11 11 100% 76.15 0.0
01 06:55 Calm 0.80 Fog OVC002 11 11 100% 76.15 0.0
01 06:35 SW 6 0.40 Fog OVC002 11 11 100% 76.12 0.0
01 06:15 W 6 0.24 Fog OVC002 11 11 100% 76.1 0.0
01 05:55 W 6 0.40 Fog OVC002 11 11 100% 76.07 0.0
01 05:35 W 7 1.21 Fog/Mist OVC002 11 11 100% 76.07 0.0
01 05:15 W 6 1.21 Fog/Mist OVC002 11 11 100% 76.07 0.0
01 04:55 W 7 0.80 Fog OVC002 11 11 100% 76.07 0.0
01 04:35 SW 6 0.80 Fog OVC002 11 11 100% 76.07 0.0
01 04:15 W 6 3.22 Fog/Mist NULL 11 11 100% 76.07 0.0
01 03:55 SW 6 4.83 Fog/Mist OVC003 11 10 94% 76.07 0.0
01 03:35 SW 9 4.02 Fog/Mist BKN007 BKN110 11 11 100% 76.05 0.0
01 03:15 SW 6 6.44 Fog/Mist SCT007 SCT110 10 10 100% 76.07 0.0
01 02:55 SW 9 8.05 Fog/Mist SCT100 SCT120 10 10 100% 9 76.05 0.0
01 02:35 SW 11 11.27 Fog/Mist SCT100 SCT120 11 10 94% 76.05 0.0
01 02:15 SW 13 11.27 Partly Cloudy SCT110 11 10 94% 76.07 0.0
01 01:55 SW 9 11.27 Fair CLR 10 9 94% 9 76.05 0.0
01 01:35 W 7 16.09 Fair CLR 9 8 94% 8 76.05 0.0
01 01:15 SW 9 11.27 Fair CLR 10 9 94% 9 76.07 0.0
01 00:55 SW 7 16.09 Fair CLR 12 10 88% 76.07 0.0
01 00:35 SW 9 16.09 Partly Cloudy SCT095 SCT120 11 10 94% 76.07 0.0
01 00:15 SW 9 16.09 Partly Cloudy SCT095 SCT120 11 10 94% 76.07 0.0
30 23:55 SW 7 16.09 Fair CLR 11 10 94% 76.07 0.0
30 23:35 SW 9 16.09 Fair CLR 11 10 94% 76.07 0.0
30 23:15 SW 7 16.09 Partly Cloudy SCT110 12 10 88% 76.07 0.0
30 22:55 SW 9 16.09 Partly Cloudy SCT110 12 10 88% 76.07 0.0
30 22:35 SW 7 16.09 Fair CLR 12 10 88% 76.07 0.0
30 22:15 SW 9 16.09 Fair CLR 12 10 88% 76.07 0.0
30 21:55 SW 7 16.09 Fair CLR 13 10 82% 76.07 0.0
Date Time (pdt) Wind (kph) Vis. (km) Weather Sky Cond. Air Dwpt Max. Min. Relative Humidity Wind Chill (°C) Heat Index (°C) altimeter (cm) sea level (mb) 1 hr 3 hr 6 hr
6 hour
Temperature (ºC) Pressure Precipitation (cm)